createdAt,value
2023-05-09T15:10:24.597Z,15.46
2023-05-09T15:12:51.930Z,15.64
2023-05-09T15:15:20.696Z,15.51
2023-05-09T15:17:47.669Z,15.40
2023-05-09T15:20:18.415Z,15.27
2023-05-09T15:22:49.059Z,15.17
2023-05-09T15:25:16.448Z,15.06
2023-05-09T15:27:43.364Z,14.97
2023-05-09T15:30:10.653Z,14.90
2023-05-09T15:32:39.925Z,14.85
2023-05-09T15:35:07.199Z,14.80
2023-05-09T15:37:35.837Z,14.76
2023-05-09T15:40:03.101Z,14.72
2023-05-09T15:42:30.047Z,14.68
2023-05-09T15:44:57.034Z,14.64
2023-05-09T15:47:23.926Z,14.62
2023-05-09T15:49:50.842Z,14.60
2023-05-09T15:52:18.168Z,14.56
2023-05-09T15:54:45.593Z,14.51
2023-05-09T15:57:42.689Z,14.48
2023-05-09T16:03:59.748Z,14.45
2023-05-09T16:06:28.828Z,14.47
2023-05-09T16:08:55.801Z,14.48
2023-05-09T16:11:22.710Z,14.47
2023-05-09T16:13:49.626Z,14.47
2023-05-09T16:16:16.953Z,14.46
2023-05-09T16:18:43.892Z,14.45
2023-05-09T16:21:10.833Z,14.41
2023-05-09T16:23:39.639Z,14.37
2023-05-09T16:26:06.935Z,14.34
2023-05-09T16:28:33.879Z,14.35
2023-05-09T16:31:04.701Z,14.33
2023-05-09T16:33:32.572Z,14.32
2023-05-09T16:35:59.575Z,14.31
2023-05-09T16:38:26.801Z,14.31
2023-05-09T16:40:53.958Z,14.28
2023-05-09T16:43:20.861Z,14.23
2023-05-09T16:45:50.750Z,14.20
2023-05-09T16:48:17.947Z,14.15
2023-05-09T16:50:45.688Z,14.10
2023-05-09T16:53:12.612Z,14.05
2023-05-09T16:55:40.037Z,13.99
2023-05-09T16:58:08.154Z,13.94
2023-05-09T17:00:35.170Z,13.90
2023-05-09T17:03:02.136Z,13.86
2023-05-09T17:05:29.187Z,13.80
2023-05-09T17:07:56.066Z,13.76
2023-05-09T17:10:22.892Z,13.73
2023-05-09T17:12:50.809Z,13.69
2023-05-09T17:15:17.889Z,13.65
2023-05-09T17:17:47.543Z,13.63
2023-05-09T17:20:14.897Z,13.58
2023-05-09T17:22:42.103Z,13.52
2023-05-09T17:25:09.441Z,13.48
2023-05-09T17:27:37.422Z,13.44
2023-05-09T17:30:05.685Z,13.38
2023-05-09T17:32:32.648Z,13.33
2023-05-09T17:34:59.559Z,13.27
2023-05-09T17:37:26.462Z,13.20
2023-05-09T17:39:54.482Z,13.14
2023-05-09T17:42:21.600Z,13.13
2023-05-09T17:44:48.857Z,13.09
2023-05-09T17:47:16.007Z,13.05
2023-05-09T17:49:43.971Z,12.98
2023-05-09T17:52:10.830Z,12.90
2023-05-09T17:54:37.987Z,12.84
2023-05-09T17:57:04.930Z,12.78
2023-05-09T17:59:32.170Z,12.73
2023-05-09T18:01:59.231Z,12.66
2023-05-09T18:04:27.452Z,12.62
2023-05-09T18:06:54.390Z,12.56
2023-05-09T18:09:22.791Z,12.50
2023-05-09T18:11:50.659Z,12.45
2023-05-09T18:14:17.917Z,12.39
2023-05-09T18:16:44.756Z,12.34
2023-05-09T18:19:11.818Z,12.30
2023-05-09T18:21:39.504Z,12.25
2023-05-09T18:24:09.279Z,12.21
2023-05-09T18:29:34.812Z,12.12
2023-05-09T18:32:02.178Z,12.08
2023-05-09T18:34:29.457Z,12.04
2023-05-09T18:36:57.385Z,11.99
2023-05-09T18:39:24.304Z,11.92
2023-05-09T18:41:51.147Z,11.84
2023-05-09T18:44:18.077Z,11.78
2023-05-09T18:46:45.445Z,11.72
2023-05-09T18:49:12.519Z,11.66
2023-05-09T18:51:39.535Z,11.61
2023-05-09T18:54:07.799Z,11.55
2023-05-09T18:56:39.414Z,11.52
2023-05-09T18:59:07.824Z,11.47
2023-05-09T19:01:34.822Z,11.36
2023-05-09T19:04:02.629Z,11.24
2023-05-09T19:06:29.836Z,11.14
2023-05-09T19:08:56.779Z,11.04
2023-05-09T19:11:23.707Z,10.89
2023-05-09T19:13:50.979Z,10.73
2023-05-09T19:16:19.856Z,10.52
2023-05-09T19:18:46.967Z,10.35
2023-05-09T19:21:15.761Z,10.21
2023-05-09T19:23:42.843Z,10.12
2023-05-09T19:26:10.771Z,10.03
2023-05-09T19:28:37.688Z,9.97
2023-05-09T19:31:04.817Z,9.91
2023-05-09T19:33:31.838Z,9.87
2023-05-09T19:35:58.751Z,9.82
2023-05-09T19:38:25.670Z,9.77
2023-05-09T19:40:52.717Z,9.71
2023-05-09T19:43:19.671Z,9.66
2023-05-09T19:45:46.602Z,9.62
2023-05-09T19:48:15.763Z,9.59
2023-05-09T19:50:43.191Z,9.54
2023-05-09T19:53:10.584Z,9.49
2023-05-09T19:55:38.577Z,9.46
2023-05-09T19:58:05.994Z,9.44
2023-05-09T20:00:33.592Z,9.46
2023-05-09T20:03:00.887Z,9.50
2023-05-09T20:05:28.922Z,9.56
2023-05-09T20:07:57.541Z,9.60
2023-05-09T20:10:24.529Z,9.58
2023-05-09T20:12:53.120Z,9.54
2023-05-09T20:15:20.795Z,9.57
2023-05-09T20:17:48.306Z,9.58
2023-05-09T20:20:15.524Z,9.60
2023-05-09T20:22:42.932Z,9.64
2023-05-09T20:25:10.334Z,9.69
2023-05-09T20:27:37.468Z,9.72
2023-05-09T20:30:04.599Z,9.69
2023-05-09T20:32:32.114Z,9.70
2023-05-09T20:34:59.438Z,9.65
2023-05-09T20:37:26.320Z,9.57
2023-05-09T20:39:53.286Z,9.57
2023-05-09T20:42:20.205Z,9.59
2023-05-09T20:44:47.900Z,9.58
2023-05-09T20:47:14.775Z,9.55
2023-05-09T20:49:41.678Z,9.56
2023-05-09T20:52:08.531Z,9.59
2023-05-09T20:54:35.385Z,9.61
2023-05-09T20:57:02.284Z,9.57
2023-05-09T20:59:29.279Z,9.57
2023-05-09T21:01:56.143Z,9.61
2023-05-09T21:04:23.267Z,9.64
2023-05-09T21:06:50.146Z,9.69
2023-05-09T21:09:17.089Z,9.70
2023-05-09T21:11:44.002Z,9.65
2023-05-09T21:14:11.571Z,9.68
2023-05-09T21:16:38.668Z,9.70
2023-05-09T21:19:06.602Z,9.73
2023-05-09T21:21:33.530Z,9.71
2023-05-09T21:24:03.322Z,9.64
2023-05-09T21:26:30.747Z,9.60
2023-05-09T21:28:57.595Z,9.62
2023-05-09T21:31:24.527Z,9.63
2023-05-09T21:33:52.146Z,9.63
2023-05-09T21:36:19.050Z,9.59
2023-05-09T21:38:45.916Z,9.60
2023-05-09T21:41:12.816Z,9.64
2023-05-09T21:43:39.727Z,9.74
2023-05-09T21:46:06.670Z,9.80
2023-05-09T21:48:33.556Z,9.74
2023-05-09T21:51:03.843Z,9.70
2023-05-09T21:53:30.884Z,9.66
2023-05-09T21:55:57.756Z,9.54
2023-05-09T21:58:24.743Z,9.50
2023-05-09T22:00:51.651Z,9.55
2023-05-09T22:03:18.596Z,9.60
2023-05-09T22:05:45.559Z,9.55
2023-05-09T22:08:12.495Z,9.50
2023-05-09T22:10:39.370Z,9.45
2023-05-09T22:13:06.347Z,9.43
2023-05-09T22:15:33.297Z,9.37
2023-05-09T22:18:00.296Z,9.32
2023-05-09T22:20:27.325Z,9.30
2023-05-09T22:22:54.230Z,9.25
2023-05-09T22:25:21.253Z,9.25
2023-05-09T22:27:48.056Z,9.31
2023-05-09T22:30:15.207Z,9.34
2023-05-09T22:32:43.325Z,9.35
2023-05-09T22:35:10.470Z,9.41
2023-05-09T22:37:37.642Z,9.44
2023-05-09T22:40:05.662Z,9.41
2023-05-09T22:42:34.454Z,9.35
2023-05-09T22:45:10.819Z,9.37
2023-05-09T22:47:37.988Z,9.42
2023-05-09T22:50:05.448Z,9.46
2023-05-09T22:52:32.437Z,9.50
2023-05-09T22:54:59.401Z,9.47
2023-05-09T22:57:26.373Z,9.43
2023-05-09T22:59:53.933Z,9.34
2023-05-09T23:02:21.386Z,9.29
2023-05-09T23:04:48.366Z,9.30
2023-05-09T23:07:15.945Z,9.35
2023-05-09T23:09:42.968Z,9.41
2023-05-09T23:12:10.786Z,9.48
2023-05-09T23:14:38.185Z,9.47
2023-05-09T23:17:05.017Z,9.46
2023-05-09T23:19:32.029Z,9.53
2023-05-09T23:21:59.524Z,9.55
2023-05-09T23:24:26.409Z,9.55
2023-05-09T23:26:53.973Z,9.55
2023-05-09T23:29:20.885Z,9.53
2023-05-09T23:31:48.304Z,9.46
2023-05-09T23:34:15.306Z,9.38
2023-05-09T23:36:42.176Z,9.28
2023-05-09T23:39:09.615Z,9.20
2023-05-09T23:41:36.522Z,9.08
2023-05-09T23:44:03.642Z,9.01
2023-05-09T23:46:30.696Z,8.97
2023-05-09T23:48:57.705Z,8.99
2023-05-09T23:51:24.672Z,8.95
2023-05-09T23:53:51.692Z,8.92
2023-05-09T23:56:18.587Z,9.00
2023-05-09T23:58:45.435Z,9.10
